Time;durP1;ratioP1;P1;durP2;ratioP2;P2;SDS_P1;SDS_P2;PMS_P1;PMS_P2;Temp;Humidity;BMP_temperature;BMP_pressure;BME280_temperature;BME280_humidity;BME280_pressure;Samples;Min_cycle;Max_cycle;Signal;HPM_P1;HPM_P2
2022/12/19 00:01:35;;;;;;;76.85;23.23;;;;;;;-3.15;79.97;101060.31;5006224;28;20049;-82
2022/12/19 00:04:08;;;;;;;83.57;24.15;;;;;;;-3.15;80.15;101063.75;5010850;28;20512;-81
2022/12/19 00:06:37;;;;;;;84.85;24.48;;;;;;;-3.14;79.96;101057.69;5020827;28;21970;-83
2022/12/19 00:09:11;;;;;;;78.53;22.35;;;;;;;-3.10;79.88;101055.91;5004769;28;20037;-82
2022/12/19 00:11:38;;;;;;;79.40;23.63;;;;;;;-3.06;79.96;101053.25;5036061;28;20508;-82
2022/12/19 00:14:05;;;;;;;78.28;23.40;;;;;;;-3.11;80.12;101049.84;4993628;28;20118;-82
2022/12/19 00:16:32;;;;;;;75.38;22.73;;;;;;;-3.09;80.05;101052.44;5002398;28;20142;-82
2022/12/19 00:19:00;;;;;;;81.78;23.90;;;;;;;-3.09;79.64;101065.41;5003080;28;20045;-82
2022/12/19 00:21:28;;;;;;;90.15;24.45;;;;;;;-3.14;79.79;101077.59;4975704;28;20382;-82
2022/12/19 00:23:55;;;;;;;77.93;21.80;;;;;;;-3.10;79.56;101071.50;4989952;28;20070;-82
2022/12/19 00:26:25;;;;;;;80.05;22.48;;;;;;;-3.11;79.86;101064.56;5007446;28;20048;-81
2022/12/19 00:28:57;;;;;;;77.50;23.42;;;;;;;-3.11;79.75;101055.03;5016292;28;20576;-82
2022/12/19 00:31:25;;;;;;;83.15;23.83;;;;;;;-3.09;79.70;101058.47;4973266;28;20091;-82
2022/12/19 00:33:52;;;;;;;80.35;23.95;;;;;;;-3.10;79.96;101053.31;5016705;28;20044;-82
2022/12/19 00:36:21;;;;;;;67.25;22.08;;;;;;;-3.11;79.86;101057.63;4990018;28;20044;-83
2022/12/19 00:38:49;;;;;;;87.63;24.58;;;;;;;-3.08;79.69;101047.22;5001559;28;20068;-82
2022/12/19 00:41:25;;;;;;;79.38;24.73;;;;;;;-3.06;79.73;101054.97;5003196;28;20041;-82
2022/12/19 00:44:01;;;;;;;85.70;23.90;;;;;;;-3.06;79.73;101044.59;5014743;28;20615;-82
2022/12/19 00:46:31;;;;;;;73.72;23.48;;;;;;;-3.03;79.68;101051.47;4990958;28;20052;-82
2022/12/19 00:48:59;;;;;;;78.43;22.38;;;;;;;-3.03;79.79;101039.34;5027294;28;20057;-81
2022/12/19 00:51:28;;;;;;;82.50;23.35;;;;;;;-3.02;79.61;101037.63;4998653;28;20041;-82
2022/12/19 00:53:55;;;;;;;79.47;23.30;;;;;;;-3.00;79.82;101041.03;5009094;28;20050;-82
2022/12/19 00:56:27;;;;;;;84.68;24.50;;;;;;;-2.98;79.87;101034.09;4999623;28;21304;-82
2022/12/19 00:58:54;;;;;;;78.15;23.77;;;;;;;-2.99;79.73;101047.97;5011537;28;20083;-82
2022/12/19 01:01:25;;;;;;;75.20;23.52;;;;;;;-2.99;80.02;101040.19;5022851;28;20520;-82
2022/12/19 01:03:53;;;;;;;82.13;24.58;;;;;;;-2.97;79.68;101033.22;4977263;28;20049;-82
2022/12/19 01:06:41;;;;;;;80.50;23.55;;;;;;;-2.97;79.89;101023.69;5006719;28;20053;-82
2022/12/19 01:09:11;;;;;;;88.28;22.95;;;;;;;-2.94;79.79;101013.25;5041743;28;20110;-82
2022/12/19 01:14:24;;;;;;;75.03;22.00;;;;;;;-2.92;79.99;101021.03;4963599;28;20049;-82
2022/12/19 01:16:51;;;;;;;85.82;23.13;;;;;;;-2.97;80.10;101007.25;4985450;28;20459;-82
2022/12/19 01:19:18;;;;;;;83.97;24.98;;;;;;;-2.92;79.73;101001.09;5009282;28;20045;-82
2022/12/19 01:21:45;;;;;;;87.65;24.10;;;;;;;-2.93;79.71;101006.31;4998244;28;20056;-83
2022/12/19 01:24:12;;;;;;;89.18;24.08;;;;;;;-2.92;80.13;101010.63;4988907;28;20994;-82
2022/12/19 01:26:43;;;;;;;79.05;22.95;;;;;;;-2.90;79.98;100991.53;5020819;28;20049;-82
2022/12/19 01:29:11;;;;;;;74.93;22.92;;;;;;;-2.92;80.35;100987.25;4977871;28;20103;-82
2022/12/19 01:31:37;;;;;;;80.93;23.55;;;;;;;-2.90;79.92;101006.25;4987835;28;20048;-82
2022/12/19 01:34:04;;;;;;;88.50;24.20;;;;;;;-2.91;80.09;101008.00;4990001;28;20044;-82
2022/12/19 01:36:31;;;;;;;85.15;24.95;;;;;;;-2.91;79.77;101010.59;4994193;28;20053;-82
2022/12/19 01:39:00;;;;;;;82.65;24.38;;;;;;;-2.89;79.69;101002.78;5004459;28;20060;-82
2022/12/19 01:41:26;;;;;;;72.32;22.75;;;;;;;-2.91;80.30;101005.41;5002700;28;20053;-82
2022/12/19 01:44:03;;;;;;;87.60;23.50;;;;;;;-2.88;80.06;101007.94;5005187;28;20069;-82
2022/12/19 01:46:35;;;;;;;84.40;25.23;;;;;;;-2.86;79.88;101000.16;5018588;28;20040;-82
2022/12/19 01:49:02;;;;;;;84.80;22.73;;;;;;;-2.85;80.29;100996.66;5007605;28;20056;-82
2022/12/19 01:51:39;;;;;;;83.30;22.95;;;;;;;-2.86;80.10;100982.81;5021867;28;20061;-83
2022/12/19 01:54:09;;;;;;;77.25;23.65;;;;;;;-2.84;80.08;100982.78;5020813;28;20458;-82
2022/12/19 01:56:40;;;;;;;87.20;23.63;;;;;;;-2.88;80.49;100976.75;5005619;28;20457;-81
2022/12/19 01:59:12;;;;;;;84.70;25.60;;;;;;;-2.86;80.26;100989.75;4988532;28;20049;-82
2022/12/19 02:01:40;;;;;;;80.95;23.95;;;;;;;-2.84;80.42;100986.25;4993152;28;20063;-82
2022/12/19 02:04:20;;;;;;;90.75;23.55;;;;;;;-2.83;80.48;100974.09;4991559;28;20049;-82
2022/12/19 02:06:47;;;;;;;93.15;25.77;;;;;;;-2.87;80.30;100968.09;4992254;28;20041;-82
2022/12/19 02:09:14;;;;;;;82.13;24.30;;;;;;;-2.80;80.12;100968.00;4989172;28;20099;-82
2022/12/19 02:11:41;;;;;;;85.47;26.27;;;;;;;-2.79;80.24;100959.34;4991001;28;20072;-82
2022/12/19 02:14:07;;;;;;;96.63;26.45;;;;;;;-2.78;80.05;100959.28;5006034;28;20129;-82
2022/12/19 02:16:51;;;;;;;80.38;23.25;;;;;;;-2.79;79.94;100956.72;5028003;28;20046;-82
2022/12/19 02:19:57;;;;;;;85.25;23.60;;;;;;;-2.77;80.07;100961.03;4980126;28;20607;-82
2022/12/19 02:22:46;;;;;;;79.55;22.65;;;;;;;-2.72;80.18;100945.34;4972039;28;20049;-82
2022/12/19 02:25:29;;;;;;;86.63;25.80;;;;;;;-2.75;79.89;100945.38;4957832;28;20419;-82
2022/12/19 02:28:36;;;;;;;84.57;25.30;;;;;;;-2.75;80.09;100940.19;5017701;28;20049;-82
2022/12/19 02:31:24;;;;;;;84.10;23.25;;;;;;;-2.72;79.71;100946.22;4944192;28;20131;-82
2022/12/19 02:34:36;;;;;;;79.22;23.30;;;;;;;-2.76;80.05;100957.53;4981483;28;20049;-82
2022/12/19 02:37:13;;;;;;;91.65;26.10;;;;;;;-2.75;80.31;100960.97;4918702;28;20044;-82
2022/12/19 02:39:45;;;;;;;83.72;22.70;;;;;;;-2.72;80.51;100954.00;5008924;28;20124;-82
2022/12/19 02:42:16;;;;;;;82.53;23.55;;;;;;;-2.69;80.25;100953.09;5020788;28;20935;-82
2022/12/19 02:44:48;;;;;;;81.30;22.88;;;;;;;-2.73;80.32;100957.47;5019830;28;20510;-84
2022/12/19 02:47:16;;;;;;;78.78;23.08;;;;;;;-2.68;79.90;100962.59;5003723;28;20132;-82
2022/12/19 02:49:42;;;;;;;81.55;22.27;;;;;;;-2.71;79.96;100960.06;5020611;28;20095;-82
2022/12/19 02:52:32;;;;;;;83.18;23.90;;;;;;;-2.75;80.48;100945.38;5003542;28;20508;-82
2022/12/19 02:55:10;;;;;;;87.88;24.50;;;;;;;-2.71;80.59;100947.06;4986986;28;20061;-82
2022/12/19 02:58:07;;;;;;;82.70;24.75;;;;;;;-2.68;80.53;100944.41;5000422;28;20059;-83
2022/12/19 03:00:42;;;;;;;84.55;24.33;;;;;;;-2.68;80.46;100932.25;4978133;28;20061;-82
2022/12/19 03:03:46;;;;;;;88.95;24.25;;;;;;;-2.69;80.84;100933.16;5020879;28;20515;-82
2022/12/19 03:06:34;;;;;;;89.05;23.92;;;;;;;-2.68;81.21;100934.00;4944466;28;20041;-82
2022/12/19 03:09:15;;;;;;;89.43;24.90;;;;;;;-2.69;81.33;100927.09;4978079;28;20128;-82
2022/12/19 03:11:44;;;;;;;87.47;24.90;;;;;;;-2.65;81.22;100931.34;4973523;28;20045;-82
2022/12/19 03:14:13;;;;;;;87.68;26.73;;;;;;;-2.61;80.98;100933.03;5002700;28;20132;-83
2022/12/19 03:16:40;;;;;;;82.63;24.55;;;;;;;-2.64;80.75;100933.09;5037504;28;20080;-82
2022/12/19 03:19:09;;;;;;;92.30;24.63;;;;;;;-2.59;81.12;100935.63;5023569;28;20152;-82
2022/12/19 03:21:45;;;;;;;90.25;25.20;;;;;;;-2.61;81.10;100946.03;4987782;28;20523;-82
2022/12/19 03:24:15;;;;;;;83.35;24.95;;;;;;;-2.58;81.14;100952.94;5031615;28;20053;-82
2022/12/19 03:27:01;;;;;;;81.35;23.77;;;;;;;-2.58;80.83;100952.94;5001860;28;20124;-82
2022/12/19 03:29:36;;;;;;;86.03;24.00;;;;;;;-2.55;80.64;100955.47;4988473;28;20044;-82
2022/12/19 03:32:06;;;;;;;88.13;23.98;;;;;;;-2.56;80.73;100954.63;4967566;28;20087;-82
2022/12/19 03:34:44;;;;;;;92.22;25.92;;;;;;;-2.55;80.87;100950.25;5007075;28;20378;-83
2022/12/19 03:37:14;;;;;;;88.53;25.75;;;;;;;-2.52;80.83;100958.00;5006772;28;20083;-82
2022/12/19 03:39:42;;;;;;;83.60;25.33;;;;;;;-2.49;80.97;100963.19;4974895;28;20579;-82
2022/12/19 03:44:57;;;;;;;89.07;25.48;;;;;;;-2.48;80.82;100957.09;4991381;28;20045;-82
2022/12/19 03:47:34;;;;;;;81.53;24.85;;;;;;;-2.47;81.02;100956.19;4992384;28;20510;-82
2022/12/19 03:50:01;;;;;;;85.80;25.35;;;;;;;-2.48;81.57;100959.69;5001159;28;20067;-82
2022/12/19 03:52:52;;;;;;;92.30;26.25;;;;;;;-2.48;81.46;100944.09;5037308;28;20054;-82
2022/12/19 03:55:26;;;;;;;86.43;24.88;;;;;;;-2.44;81.38;100941.41;5005283;28;20396;-82
2022/12/19 03:58:09;;;;;;;86.03;23.85;;;;;;;-2.45;81.80;100936.22;4971504;28;20052;-82
2022/12/19 04:00:40;;;;;;;96.32;25.85;;;;;;;-2.44;82.01;100936.22;4956495;28;20053;-82
2022/12/19 04:03:08;;;;;;;87.68;27.35;;;;;;;-2.43;81.96;100929.25;5032185;28;20504;-82
2022/12/19 04:05:35;;;;;;;85.47;24.85;;;;;;;-2.42;81.95;100934.44;5005065;28;20049;-82
2022/12/19 04:08:05;;;;;;;86.40;25.90;;;;;;;-2.41;81.81;100925.75;5020792;28;20117;-82
2022/12/19 04:10:34;;;;;;;103.13;28.67;;;;;;;-2.43;81.97;100930.13;4986361;28;20045;-82
2022/12/19 04:13:04;;;;;;;103.00;27.33;;;;;;;-2.41;81.97;100925.75;4988419;28;20049;-82
2022/12/19 04:15:53;;;;;;;89.13;25.52;;;;;;;-2.41;82.20;100937.91;4971113;28;20100;-83
2022/12/19 04:18:21;;;;;;;85.45;26.63;;;;;;;-2.38;81.93;100932.63;4942025;28;20542;-83
2022/12/19 04:20:54;;;;;;;85.43;24.85;;;;;;;-2.35;82.15;100942.13;4987332;28;20804;-83
2022/12/19 04:23:27;;;;;;;97.78;25.85;;;;;;;-2.39;82.63;100938.75;5004433;28;20107;-83
2022/12/19 04:25:58;;;;;;;86.80;25.50;;;;;;;-2.34;82.07;100947.31;5010299;28;20045;-82
2022/12/19 04:28:37;;;;;;;107.50;28.73;;;;;;;-2.35;83.14;100949.94;5042451;28;20128;-83
2022/12/19 04:31:04;;;;;;;98.97;28.60;;;;;;;-2.32;82.60;100952.47;4988073;28;20051;-83
2022/12/19 04:33:31;;;;;;;98.10;27.40;;;;;;;-2.35;83.00;100945.59;5008891;28;20049;-83
2022/12/19 04:35:58;;;;;;;94.13;26.50;;;;;;;-2.30;82.78;100946.34;5007449;28;20120;-83
2022/12/19 04:38:25;;;;;;;99.70;28.55;;;;;;;-2.31;83.45;100951.59;5035532;28;20132;-83
2022/12/19 04:40:52;;;;;;;99.57;25.90;;;;;;;-2.28;83.44;100959.34;5008375;28;20041;-83
2022/12/19 04:43:19;;;;;;;107.68;27.23;;;;;;;-2.29;83.59;100945.50;5010063;28;20107;-83
2022/12/19 04:45:45;;;;;;;97.63;26.50;;;;;;;-2.28;83.89;100944.59;4990299;28;20095;-82
2022/12/19 04:48:14;;;;;;;91.47;25.52;;;;;;;-2.26;83.40;100955.84;5025850;28;20041;-83
2022/12/19 04:50:41;;;;;;;86.40;25.75;;;;;;;-2.26;83.82;100941.97;5005702;28;20071;-84
2022/12/19 04:53:07;;;;;;;102.18;27.33;;;;;;;-2.26;84.02;100949.78;4994422;28;20095;-82
2022/12/19 04:55:35;;;;;;;103.47;28.65;;;;;;;-2.24;83.54;100940.19;5036250;28;21307;-83
2022/12/19 04:58:04;;;;;;;97.22;26.88;;;;;;;-2.20;83.68;100939.25;4998951;28;20052;-86
2022/12/19 05:00:30;;;;;;;103.00;27.70;;;;;;;-2.20;84.48;100932.31;4991415;28;20106;-86
2022/12/19 05:02:57;;;;;;;103.22;26.92;;;;;;;-2.19;83.98;100921.03;4977521;28;20049;-85
2022/12/19 05:05:24;;;;;;;96.97;27.30;;;;;;;-2.17;83.71;100915.78;5004458;28;20136;-85
2022/12/19 05:07:51;;;;;;;89.95;25.52;;;;;;;-2.14;83.89;100923.50;5007414;28;20042;-84
2022/12/19 05:10:17;;;;;;;86.45;23.48;;;;;;;-2.12;83.75;100916.53;5005352;28;20064;-84
2022/12/19 05:12:44;;;;;;;104.95;26.75;;;;;;;-2.10;84.05;100913.94;4988156;28;20048;-86
2022/12/19 05:15:10;;;;;;;94.05;26.25;;;;;;;-2.11;85.43;100915.69;5005976;28;20492;-85
2022/12/19 05:17:37;;;;;;;107.82;28.48;;;;;;;-2.14;86.17;100914.84;5005342;28;20057;-84
2022/12/19 05:20:07;;;;;;;101.85;26.42;;;;;;;-2.11;85.06;100917.41;5002716;28;20044;-84
2022/12/19 05:22:34;;;;;;;114.57;29.70;;;;;;;-2.15;86.24;100916.59;5035519;28;20577;-84
2022/12/19 05:25:00;;;;;;;98.07;28.77;;;;;;;-2.10;85.13;100927.78;5007065;28;20116;-85
2022/12/19 05:27:27;;;;;;;103.50;28.80;;;;;;;-2.08;85.00;100922.56;5006056;28;20041;-85
2022/12/19 05:29:54;;;;;;;110.18;29.20;;;;;;;-2.08;85.20;100915.63;5006584;28;20041;-85
2022/12/19 05:32:20;;;;;;;124.10;30.65;;;;;;;-2.10;85.82;100904.38;4993034;28;20788;-84
2022/12/19 05:34:47;;;;;;;95.68;27.75;;;;;;;-2.07;85.57;100909.50;5007446;28;20548;-85
2022/12/19 05:37:14;;;;;;;117.47;31.73;;;;;;;-2.05;85.90;100901.69;5021043;28;20073;-85
2022/12/19 05:39:40;;;;;;;103.15;29.33;;;;;;;-2.07;85.41;100891.28;5008290;28;20041;-85
2022/12/19 05:42:07;;;;;;;110.22;28.55;;;;;;;-2.07;86.80;100896.50;5022911;28;20068;-84
2022/12/19 05:44:38;;;;;;;106.95;29.50;;;;;;;-2.04;86.02;100899.03;5002204;28;20484;-84
2022/12/19 05:47:06;;;;;;;95.70;25.75;;;;;;;-2.03;86.46;100899.91;5002890;28;20072;-84
2022/12/19 05:49:36;;;;;;;102.65;27.70;;;;;;;-2.04;86.53;100890.38;5008682;28;20492;-84
2022/12/19 05:52:03;;;;;;;102.18;26.73;;;;;;;-2.01;86.02;100883.38;4990530;28;20128;-84
2022/12/19 05:54:29;;;;;;;118.22;31.70;;;;;;;-1.99;85.57;100884.19;5005879;28;20049;-84
2022/12/19 05:56:56;;;;;;;114.20;29.45;;;;;;;-1.99;86.39;100885.94;4990954;28;20503;-84
2022/12/19 05:59:25;;;;;;;121.30;32.00;;;;;;;-1.97;86.00;100889.38;5008935;28;20060;-84
2022/12/19 06:01:52;;;;;;;119.15;29.55;;;;;;;-1.97;86.32;100895.44;5002254;28;20049;-84
2022/12/19 06:04:19;;;;;;;115.18;30.38;;;;;;;-1.96;86.16;100893.69;5007341;28;20052;-84
2022/12/19 06:06:46;;;;;;;98.50;27.10;;;;;;;-1.95;86.04;100887.59;5004032;28;20049;-84
2022/12/19 06:09:12;;;;;;;113.30;28.90;;;;;;;-1.99;87.11;100894.59;5023225;28;20079;-84
2022/12/19 06:11:39;;;;;;;99.80;28.52;;;;;;;-1.97;86.71;100895.44;5035386;28;20041;-84
2022/12/19 06:14:06;;;;;;;105.22;28.70;;;;;;;-1.95;87.00;100900.63;5020737;28;20060;-84
2022/12/19 06:16:32;;;;;;;108.97;28.10;;;;;;;-1.97;86.92;100900.63;4995547;28;20128;-84
2022/12/19 06:18:59;;;;;;;116.80;28.88;;;;;;;-1.93;86.85;100897.97;5022875;28;20471;-84
2022/12/19 06:21:26;;;;;;;105.63;27.48;;;;;;;-1.93;86.63;100906.66;4992030;28;20149;-84
2022/12/19 06:23:53;;;;;;;110.53;28.75;;;;;;;-1.90;86.53;100903.13;5007855;28;21167;-85
2022/12/19 06:26:21;;;;;;;109.30;28.15;;;;;;;-1.87;86.78;100897.84;4989555;28;20067;-84
2022/12/19 06:28:49;;;;;;;119.40;30.58;;;;;;;-1.87;86.52;100906.53;5005430;28;20418;-84
2022/12/19 06:31:16;;;;;;;118.75;27.95;;;;;;;-1.86;86.56;100900.41;5016652;28;20054;-84
2022/12/19 06:33:43;;;;;;;114.85;29.58;;;;;;;-1.86;86.76;100897.81;5005130;28;20072;-84
2022/12/19 06:36:18;;;;;;;118.10;30.13;;;;;;;-1.85;86.91;100894.34;5034161;28;20041;-85
2022/12/19 06:38:44;;;;;;;113.72;29.60;;;;;;;-1.85;86.87;100893.47;4987778;28;20045;-85
2022/12/19 06:43:58;;;;;;;119.18;30.77;;;;;;;-1.80;86.41;100904.66;5000582;28;20061;-85
2022/12/19 06:46:25;;;;;;;118.45;29.83;;;;;;;-1.79;86.25;100893.34;4988212;28;20232;-85
2022/12/19 06:48:52;;;;;;;110.47;29.08;;;;;;;-1.76;86.01;100901.09;5011519;28;20116;-85
2022/12/19 06:51:18;;;;;;;121.55;30.33;;;;;;;-1.78;86.95;100901.13;5034110;28;20039;-85
2022/12/19 06:53:45;;;;;;;105.65;29.67;;;;;;;-1.76;86.58;100894.13;4979446;28;20049;-85
2022/12/19 06:56:13;;;;;;;127.30;30.52;;;;;;;-1.73;86.40;100892.34;5050855;28;20526;-85
2022/12/19 06:58:40;;;;;;;114.20;31.33;;;;;;;-1.77;86.25;100884.63;5002150;28;20052;-85
2022/12/19 07:01:27;;;;;;;123.53;33.78;;;;;;;-1.71;86.27;100882.78;4978315;28;20033;-85
2022/12/19 07:03:54;;;;;;;125.95;31.55;;;;;;;-1.71;86.12;100883.63;4959165;28;20510;-85
2022/12/19 07:06:21;;;;;;;123.82;30.65;;;;;;;-1.70;86.53;100880.16;5005115;28;20492;-86
2022/12/19 07:08:47;;;;;;;120.53;29.70;;;;;;;-1.68;86.07;100886.19;4981972;28;20052;-85
2022/12/19 07:11:14;;;;;;;127.00;31.77;;;;;;;-1.69;86.59;100888.81;4993726;28;20106;-85
2022/12/19 07:13:41;;;;;;;123.50;31.42;;;;;;;-1.69;86.67;100894.00;4986309;28;20052;-85
2022/12/19 07:16:08;;;;;;;119.03;32.15;;;;;;;-1.68;86.43;100883.59;5006724;28;20565;-85
2022/12/19 07:18:37;;;;;;;120.97;32.38;;;;;;;-1.64;86.19;100887.81;5019217;28;20061;-85
2022/12/19 07:21:04;;;;;;;129.32;32.35;;;;;;;-1.63;86.37;100884.34;5004731;28;20045;-85
2022/12/19 07:23:32;;;;;;;126.70;35.00;;;;;;;-1.62;86.25;100887.78;4989980;28;20140;-85
2022/12/19 07:25:59;;;;;;;127.05;31.08;;;;;;;-1.64;86.83;100895.63;5035423;28;20057;-85
2022/12/19 07:28:26;;;;;;;122.57;31.70;;;;;;;-1.61;86.31;100885.13;4989553;28;20046;-85
2022/12/19 07:30:52;;;;;;;113.28;29.48;;;;;;;-1.58;86.10;100890.31;4989272;28;20052;-85
2022/12/19 07:33:19;;;;;;;115.65;31.13;;;;;;;-1.57;86.37;100889.41;5020946;28;20404;-85
2022/12/19 07:35:47;;;;;;;123.13;33.10;;;;;;;-1.58;86.97;100886.81;5022473;28;20131;-86
2022/12/19 07:38:14;;;;;;;119.22;29.75;;;;;;;-1.55;86.21;100879.81;5005499;28;20048;-85
2022/12/19 07:40:41;;;;;;;123.32;31.80;;;;;;;-1.54;86.38;100885.88;4971839;28;20083;-85
2022/12/19 07:43:08;;;;;;;115.35;29.58;;;;;;;-1.52;86.42;100891.06;5005420;28;20049;-85
2022/12/19 07:45:36;;;;;;;106.50;28.98;;;;;;;-1.50;86.10;100889.25;4992499;28;20045;-85
2022/12/19 07:48:05;;;;;;;110.13;31.33;;;;;;;-1.48;86.02;100890.09;5020018;28;20051;-85
2022/12/19 07:50:32;;;;;;;123.97;30.98;;;;;;;-1.47;86.34;100894.44;4988660;28;20141;-85
2022/12/19 07:52:59;;;;;;;123.90;31.65;;;;;;;-1.48;86.17;100893.53;5037818;28;20500;-85
2022/12/19 07:55:27;;;;;;;134.43;32.88;;;;;;;-1.46;86.57;100894.38;5005322;28;20405;-85
2022/12/19 07:57:54;;;;;;;118.22;29.60;;;;;;;-1.47;86.88;100905.69;4981468;28;20053;-85
2022/12/19 08:00:21;;;;;;;116.18;31.20;;;;;;;-1.42;86.58;100903.84;5046917;28;20037;-85
2022/12/19 08:02:48;;;;;;;123.70;32.70;;;;;;;-1.40;86.64;100901.19;4981173;28;20052;-86
2022/12/19 08:05:15;;;;;;;118.03;31.38;;;;;;;-1.41;86.65;100896.88;5022842;28;20084;-85
2022/12/19 08:07:42;;;;;;;121.55;31.73;;;;;;;-1.38;86.19;100897.66;4991346;28;20428;-85
2022/12/19 08:10:11;;;;;;;112.32;28.85;;;;;;;-1.35;86.17;100897.63;5008380;28;20095;-85
2022/12/19 08:12:37;;;;;;;112.88;29.02;;;;;;;-1.33;86.17;100898.41;5039879;28;20656;-85
2022/12/19 08:15:05;;;;;;;117.22;28.40;;;;;;;-1.29;86.22;100896.63;5023785;28;20049;-85
2022/12/19 08:17:33;;;;;;;124.25;32.72;;;;;;;-1.28;86.37;100900.91;4975484;28;20120;-85
2022/12/19 08:20:00;;;;;;;112.32;31.15;;;;;;;-1.27;86.21;100902.66;5021123;28;20053;-85
2022/12/19 08:22:28;;;;;;;117.15;29.80;;;;;;;-1.23;86.32;100900.81;4991975;28;20106;-85
2022/12/19 08:24:56;;;;;;;122.13;31.38;;;;;;;-1.22;86.36;100899.91;5007070;28;20622;-86
2022/12/19 08:27:23;;;;;;;117.07;32.10;;;;;;;-1.22;86.15;100892.09;5007667;28;20052;-85
2022/12/19 08:29:49;;;;;;;124.22;32.58;;;;;;;-1.21;86.21;100892.06;5007454;28;20052;-86
2022/12/19 08:32:17;;;;;;;123.05;32.40;;;;;;;-1.19;86.43;100899.88;5021058;28;20049;-85
2022/12/19 08:34:48;;;;;;;121.18;32.90;;;;;;;-1.17;86.17;100898.94;5009561;28;20125;-86
2022/12/19 08:37:15;;;;;;;109.03;28.83;;;;;;;-1.17;86.33;100904.16;5024631;28;20056;-85
2022/12/19 08:39:42;;;;;;;123.22;32.72;;;;;;;-1.11;86.32;100900.53;5005984;28;20052;-85
2022/12/19 08:42:08;;;;;;;113.65;31.30;;;;;;;-1.12;86.18;100891.88;4996548;28;20696;-85
2022/12/19 08:44:35;;;;;;;129.10;33.72;;;;;;;-1.07;86.06;100894.34;5007775;28;20056;-85
2022/12/19 08:47:02;;;;;;;130.35;31.92;;;;;;;-1.05;86.41;100902.16;4992978;28;20808;-85
2022/12/19 08:49:28;;;;;;;117.00;31.77;;;;;;;-1.07;86.45;100876.09;5008421;28;20167;-86
2022/12/19 08:51:55;;;;;;;115.25;30.65;;;;;;;-1.06;86.40;100877.00;5023228;28;20152;-86
2022/12/19 08:54:22;;;;;;;139.77;32.35;;;;;;;-1.02;86.30;100881.22;5008811;28;20063;-85
2022/12/19 08:56:48;;;;;;;114.15;29.33;;;;;;;-1.00;86.24;100879.44;4995835;28;20138;-86
2022/12/19 08:59:15;;;;;;;136.45;36.58;;;;;;;-1.00;86.44;100874.22;4993242;28;20041;-86
2022/12/19 09:02:00;;;;;;;124.97;30.55;;;;;;;-0.97;86.30;100864.56;5013148;28;20060;-86
2022/12/19 09:04:27;;;;;;;129.13;33.25;;;;;;;-0.97;86.86;100877.59;5019780;28;20123;-86
2022/12/19 09:07:14;;;;;;;131.18;31.90;;;;;;;-0.94;86.58;100871.44;4960368;28;20052;-86
2022/12/19 09:09:43;;;;;;;134.20;33.50;;;;;;;-0.92;86.59;100873.13;5005948;28;20040;-86
2022/12/19 09:12:11;;;;;;;135.82;34.08;;;;;;;-0.90;86.50;100858.31;5034538;28;20581;-86
2022/12/19 09:14:38;;;;;;;136.50;33.10;;;;;;;-0.90;86.22;100860.06;4979068;28;20069;-86
2022/12/19 09:17:05;;;;;;;117.57;30.65;;;;;;;-0.86;86.12;100863.47;5006625;28;20064;-86
2022/12/19 09:19:31;;;;;;;134.77;34.33;;;;;;;-0.85;86.43;100863.41;4999115;28;20061;-85
2022/12/19 09:21:58;;;;;;;139.30;32.97;;;;;;;-0.83;86.30;100863.38;4988104;28;20123;-86
2022/12/19 09:24:25;;;;;;;126.45;32.58;;;;;;;-0.80;86.49;100863.31;5005625;28;20049;-86
2022/12/19 09:26:52;;;;;;;130.07;35.10;;;;;;;-0.78;86.57;100867.59;5009568;28;20106;-86
2022/12/19 09:29:19;;;;;;;135.50;35.00;;;;;;;-0.76;86.55;100867.56;5005770;28;20388;-86
2022/12/19 09:31:50;;;;;;;130.65;32.78;;;;;;;-0.76;86.53;100868.41;5018500;28;20045;-86
2022/12/19 09:34:27;;;;;;;150.25;37.67;;;;;;;-0.74;86.55;100863.13;5006606;28;20064;-86
2022/12/19 09:37:10;;;;;;;123.68;33.75;;;;;;;-0.73;87.44;100854.44;4999540;28;20049;-86
2022/12/19 09:39:47;;;;;;;143.55;35.95;;;;;;;-0.71;87.17;100863.09;4971897;28;20049;-86
2022/12/19 09:42:41;;;;;;;146.48;37.38;;;;;;;-0.71;86.84;100855.25;5005487;28;20095;-86
2022/12/19 09:45:17;;;;;;;305.73;80.78;;;;;;;-0.70;87.41;100851.75;4985033;28;20578;-86
2022/12/19 09:47:59;;;;;;;153.57;38.78;;;;;;;-0.70;87.58;100846.53;4973123;28;20405;-86
2022/12/19 09:50:50;;;;;;;146.40;34.67;;;;;;;-0.69;87.33;100849.13;5014569;28;20041;-85
2022/12/19 09:53:32;;;;;;;131.73;33.92;;;;;;;-0.68;87.12;100845.59;4981771;28;20724;-86
2022/12/19 09:55:59;;;;;;;143.73;37.60;;;;;;;-0.65;87.58;100844.66;4971155;28;20052;-85
2022/12/19 09:58:31;;;;;;;144.55;39.42;;;;;;;-0.63;87.33;100834.19;5035599;28;20108;-86
2022/12/19 10:01:03;;;;;;;136.38;35.53;;;;;;;-0.62;87.32;100836.75;5029406;28;20065;-86
2022/12/19 10:03:42;;;;;;;155.45;37.88;;;;;;;-0.64;88.70;100841.13;4990041;28;20053;-86
2022/12/19 10:06:21;;;;;;;138.20;35.45;;;;;;;-0.62;87.79;100839.34;5010285;28;20051;-86
2022/12/19 10:09:11;;;;;;;128.50;33.03;;;;;;;-0.58;87.45;100835.78;4962173;28;20160;-85
2022/12/19 10:12:05;;;;;;;149.68;35.95;;;;;;;-0.55;87.68;100837.44;4979482;28;20053;-85
2022/12/19 10:14:54;;;;;;;148.15;37.05;;;;;;;-0.52;87.34;100833.00;4993695;28;20050;-86
2022/12/19 10:18:09;;;;;;;136.43;35.97;;;;;;;-0.53;87.86;100826.09;4980481;28;20055;-86
2022/12/19 10:20:37;;;;;;;141.13;33.85;;;;;;;-0.49;87.55;100832.91;4874370;28;20457;-85
2022/12/19 10:23:08;;;;;;;134.60;36.63;;;;;;;-0.48;87.30;100829.41;4987446;28;20160;-86
2022/12/19 10:25:52;;;;;;;161.20;36.70;;;;;;;-0.44;87.02;100823.19;5004942;28;20041;-86
2022/12/19 10:28:37;;;;;;;146.75;35.00;;;;;;;-0.41;87.48;100832.69;5002615;28;20137;-85
2022/12/19 10:31:31;;;;;;;136.60;35.30;;;;;;;-0.39;87.69;100824.84;4987443;28;20087;-86
2022/12/19 10:34:07;;;;;;;162.18;39.00;;;;;;;-0.38;87.88;100813.50;4973714;28;20120;-85
2022/12/19 10:36:56;;;;;;;156.25;35.92;;;;;;;-0.40;88.22;100804.88;4956218;28;20627;-86
2022/12/19 10:40:04;;;;;;;161.20;38.58;;;;;;;-0.40;88.51;100797.91;4939656;28;20568;-85
2022/12/19 10:42:48;;;;;;;153.27;36.72;;;;;;;-0.37;87.75;100803.03;4990538;28;20042;-85
2022/12/19 10:45:18;;;;;;;145.00;35.22;;;;;;;-0.34;87.86;100796.88;4974806;28;20037;-85
2022/12/19 10:47:55;;;;;;;148.23;35.28;;;;;;;-0.33;88.01;100790.75;5006024;28;20048;-85
2022/12/19 10:50:27;;;;;;;139.02;35.42;;;;;;;-0.28;87.89;100787.13;4998687;28;20040;-85
2022/12/19 10:53:06;;;;;;;133.60;34.58;;;;;;;-0.25;87.77;100780.97;5000729;28;20059;-85
2022/12/19 10:55:46;;;;;;;153.95;37.85;;;;;;;-0.21;88.13;100800.84;4984063;28;20042;-85
2022/12/19 10:58:21;;;;;;;151.40;39.55;;;;;;;-0.15;88.00;100795.47;4986091;28;20052;-85
2022/12/19 11:01:10;;;;;;;155.27;36.97;;;;;;;-0.12;88.34;100779.69;5030138;28;20045;-85
2022/12/19 11:03:40;;;;;;;151.80;39.03;;;;;;;-0.04;87.88;100771.63;4957116;28;20056;-85
2022/12/19 11:06:36;;;;;;;139.70;35.03;;;;;;;-0.05;87.92;100776.00;5003019;28;20041;-85
2022/12/19 11:09:21;;;;;;;160.88;42.63;;;;;;;-0.03;88.52;100763.75;4968709;28;20060;-85
2022/12/19 11:11:58;;;;;;;155.95;39.65;;;;;;;0.01;88.32;100759.31;5029798;28;20045;-85
2022/12/19 11:15:06;;;;;;;149.23;38.53;;;;;;;0.03;88.74;100759.28;4977203;28;20400;-85
2022/12/19 11:18:05;;;;;;;166.90;39.08;;;;;;;0.05;87.72;100754.81;4963908;28;20494;-84
2022/12/19 11:21:06;;;;;;;149.45;35.85;;;;;;;0.07;88.21;100737.38;4965053;28;20102;-84
2022/12/19 11:23:59;;;;;;;142.52;36.10;;;;;;;0.11;87.95;100739.84;4991452;28;20145;-85
2022/12/19 11:26:48;;;;;;;164.30;40.00;;;;;;;0.17;88.12;100744.00;4988916;28;20056;-85
2022/12/19 11:29:46;;;;;;;173.07;39.78;;;;;;;0.17;88.14;100746.63;4997786;28;20511;-85
2022/12/19 11:32:38;;;;;;;156.18;39.83;;;;;;;0.24;87.94;100735.09;4944245;28;21701;-85
2022/12/19 11:35:17;;;;;;;144.70;39.03;;;;;;;0.27;88.46;100742.81;4994310;28;20051;-85
2022/12/19 11:37:55;;;;;;;159.57;41.28;;;;;;;0.30;88.28;100741.88;5015899;28;20049;-85